createdAt,value
2022-11-13T00:05:15.611Z,9.90
2022-11-13T00:10:35.971Z,11.07
2022-11-13T00:16:02.489Z,12.52
2022-11-13T00:21:25.190Z,12.57
2022-11-13T00:26:45.246Z,12.57
2022-11-13T00:32:06.199Z,14.30
2022-11-13T00:37:26.369Z,13.45
2022-11-13T00:42:46.819Z,15.00
2022-11-13T00:48:07.069Z,14.40
2022-11-13T00:53:27.762Z,15.77
2022-11-13T00:58:47.802Z,16.60
2022-11-13T01:04:08.152Z,15.32
2022-11-13T01:09:28.392Z,15.75
2022-11-13T01:14:49.060Z,14.82
2022-11-13T01:20:09.825Z,14.82
2022-11-13T01:25:31.027Z,15.10
2022-11-13T01:30:50.968Z,15.35
2022-11-13T01:36:20.620Z,14.05
2022-11-13T01:41:41.161Z,15.15
2022-11-13T01:47:03.446Z,15.90
2022-11-13T01:52:34.255Z,16.57
2022-11-13T01:57:54.859Z,13.77
2022-11-13T02:03:15.284Z,15.40
2022-11-13T02:08:35.635Z,13.88
2022-11-13T02:13:55.935Z,13.15
2022-11-13T02:19:24.079Z,15.38
2022-11-13T02:24:49.847Z,15.45
2022-11-13T02:30:23.583Z,16.05
2022-11-13T02:35:45.909Z,15.27
2022-11-13T02:41:06.344Z,15.45
2022-11-13T02:46:26.531Z,14.15
2022-11-13T02:51:46.961Z,15.20
2022-11-13T02:57:07.038Z,12.45
2022-11-13T03:02:28.323Z,12.90
2022-11-13T03:07:48.779Z,14.27
2022-11-13T03:13:08.967Z,13.70
2022-11-13T03:18:29.581Z,13.43
2022-11-13T03:23:49.957Z,13.20
2022-11-13T03:29:10.501Z,16.67
2022-11-13T03:34:30.820Z,12.52
2022-11-13T03:39:51.334Z,11.20
2022-11-13T03:45:11.889Z,13.27
2022-11-13T03:50:31.967Z,12.85
2022-11-13T03:55:52.734Z,14.40
2022-11-13T04:01:12.882Z,13.98
2022-11-13T04:06:33.174Z,12.73
2022-11-13T04:11:53.224Z,14.13
2022-11-13T04:17:13.282Z,13.90
2022-11-13T04:22:33.532Z,12.00
2022-11-13T04:27:53.836Z,12.95
2022-11-13T04:33:14.444Z,11.45
2022-11-13T04:38:34.612Z,12.48
2022-11-13T04:43:54.772Z,12.30
2022-11-13T04:49:15.108Z,11.65
2022-11-13T04:54:35.353Z,12.65
2022-11-13T04:59:55.504Z,11.60
2022-11-13T05:05:16.923Z,11.45
2022-11-13T05:10:37.326Z,11.05
2022-11-13T05:16:07.139Z,10.55
2022-11-13T05:21:27.216Z,11.50
2022-11-13T05:26:47.694Z,9.32
2022-11-13T05:32:08.274Z,9.07
2022-11-13T05:37:29.595Z,9.82
2022-11-13T05:42:50.122Z,8.90
2022-11-13T05:48:10.825Z,9.55
2022-11-13T05:53:33.790Z,7.88
2022-11-13T05:58:55.263Z,8.10
2022-11-13T06:04:15.312Z,7.55
2022-11-13T06:09:35.816Z,7.70
2022-11-13T06:14:56.320Z,8.38
2022-11-13T06:20:16.762Z,7.05
2022-11-13T06:25:37.295Z,7.43
2022-11-13T06:31:05.858Z,8.13
2022-11-13T06:36:28.667Z,7.90
2022-11-13T06:41:49.038Z,9.27
2022-11-13T06:47:09.590Z,8.23
2022-11-13T06:52:30.100Z,8.85
2022-11-13T06:57:50.421Z,9.57
2022-11-13T07:03:19.801Z,8.60
2022-11-13T07:08:41.624Z,9.95
2022-11-13T07:14:01.884Z,8.20
2022-11-13T07:19:22.042Z,8.32
2022-11-13T07:24:42.626Z,7.80
2022-11-13T07:30:06.919Z,8.85
2022-11-13T07:35:27.228Z,9.35
2022-11-13T07:40:47.709Z,8.90
2022-11-13T07:46:08.199Z,8.18
2022-11-13T07:51:28.615Z,8.38
2022-11-13T07:56:49.296Z,7.90
2022-11-13T08:02:15.190Z,7.90
2022-11-13T08:07:35.241Z,7.53
2022-11-13T08:13:03.756Z,8.35
2022-11-13T08:18:24.296Z,9.10
2022-11-13T08:23:44.765Z,8.18
2022-11-13T08:29:04.996Z,8.70
2022-11-13T08:34:25.177Z,9.38
2022-11-13T08:39:45.601Z,5.05
2022-11-13T08:45:06.721Z,6.80
2022-11-13T08:50:28.992Z,7.05
2022-11-13T08:55:49.664Z,6.73
2022-11-13T09:01:10.426Z,7.30
2022-11-13T09:06:30.955Z,6.65
2022-11-13T09:11:51.096Z,6.68
2022-11-13T09:17:11.150Z,7.25
2022-11-13T09:22:31.712Z,7.10
2022-11-13T09:27:57.140Z,6.45
2022-11-13T09:33:17.560Z,5.97
2022-11-13T09:38:38.753Z,7.10
2022-11-13T09:44:03.365Z,6.25
2022-11-13T09:49:34.434Z,6.35
2022-11-13T09:54:54.445Z,5.90
2022-11-13T10:00:22.513Z,5.40
2022-11-13T10:05:54.892Z,4.70
2022-11-13T10:11:35.708Z,5.10
2022-11-13T10:17:02.797Z,4.40
2022-11-13T10:22:39.318Z,4.55
2022-11-13T10:28:15.882Z,4.63
2022-11-13T10:33:42.126Z,4.20
2022-11-13T10:39:06.629Z,5.05
2022-11-13T10:44:33.733Z,4.65
2022-11-13T10:49:56.086Z,4.45
2022-11-13T10:55:25.104Z,4.50
2022-11-13T11:00:50.553Z,4.63
2022-11-13T11:06:11.747Z,4.35
2022-11-13T11:11:50.097Z,4.28
2022-11-13T11:17:14.126Z,4.43
2022-11-13T11:22:38.520Z,4.70
2022-11-13T11:28:07.765Z,4.13
2022-11-13T11:33:47.471Z,4.20
2022-11-13T11:39:19.335Z,4.25
2022-11-13T11:44:48.383Z,4.38
2022-11-13T11:50:17.825Z,4.07
2022-11-13T11:55:47.677Z,4.50
2022-11-13T12:01:37.994Z,4.47
2022-11-13T12:07:15.305Z,4.40
2022-11-13T12:12:38.724Z,4.43
2022-11-13T12:18:27.005Z,4.03
2022-11-13T12:23:58.739Z,4.55
2022-11-13T12:29:43.425Z,4.47
2022-11-13T12:35:19.569Z,4.43
2022-11-13T12:40:48.693Z,4.65
2022-11-13T12:46:12.941Z,4.30
2022-11-13T12:51:40.823Z,4.68
2022-11-13T12:57:13.164Z,4.35
2022-11-13T13:02:47.076Z,4.35
2022-11-13T13:08:10.280Z,4.63
2022-11-13T13:14:13.332Z,5.32
2022-11-13T13:19:35.318Z,4.40
2022-11-13T13:25:02.117Z,5.25
2022-11-13T13:30:27.616Z,4.82
2022-11-13T13:36:09.037Z,4.97
2022-11-13T13:41:53.429Z,4.60
2022-11-13T13:47:22.590Z,4.43
2022-11-13T13:52:44.024Z,4.35
2022-11-13T13:58:09.785Z,4.25
2022-11-13T14:03:30.375Z,4.43
2022-11-13T14:08:50.476Z,4.90
2022-11-13T14:14:17.697Z,4.30
2022-11-13T14:19:38.989Z,4.53
2022-11-13T14:25:01.406Z,4.72
2022-11-13T14:35:52.892Z,4.60
2022-11-13T14:41:23.223Z,4.40
2022-11-13T14:46:47.489Z,4.53
2022-11-13T14:52:20.922Z,4.38
2022-11-13T14:57:50.713Z,3.92
2022-11-13T15:03:10.907Z,4.07
2022-11-13T15:08:31.359Z,4.35
2022-11-13T15:13:52.628Z,4.70
2022-11-13T15:19:17.250Z,4.30
2022-11-13T15:24:37.630Z,4.20
2022-11-13T15:29:58.029Z,4.43
2022-11-13T15:35:19.049Z,4.05
2022-11-13T15:40:39.617Z,3.97
2022-11-13T15:45:59.873Z,3.80
2022-11-13T15:51:28.189Z,4.10
2022-11-13T15:56:48.620Z,3.47
2022-11-13T16:02:09.752Z,3.83
2022-11-13T16:07:31.573Z,4.43
2022-11-13T16:12:52.661Z,3.95
2022-11-13T16:18:24.421Z,3.97
2022-11-13T16:23:44.927Z,4.97
2022-11-13T16:29:18.453Z,4.28
2022-11-13T16:34:39.442Z,4.97
2022-11-13T16:39:59.892Z,5.32
2022-11-13T16:45:21.279Z,4.30
2022-11-13T16:50:42.461Z,4.30
2022-11-13T16:56:13.116Z,3.95
2022-11-13T17:01:33.492Z,4.15
2022-11-13T17:06:56.802Z,4.35
2022-11-13T17:12:21.879Z,5.32
2022-11-13T17:17:43.636Z,6.10
2022-11-13T17:23:04.113Z,5.43
2022-11-13T17:28:24.607Z,6.82
2022-11-13T17:33:45.030Z,6.30
2022-11-13T17:39:05.515Z,15.52
2022-11-13T17:44:25.615Z,12.07
2022-11-13T17:49:46.282Z,8.00
2022-11-13T17:55:07.645Z,7.25
2022-11-13T18:00:28.012Z,8.98
2022-11-13T18:05:48.260Z,7.20
2022-11-13T18:11:24.470Z,8.82
2022-11-13T18:16:45.446Z,9.07
2022-11-13T18:22:06.436Z,7.72
2022-11-13T18:27:26.576Z,8.77
2022-11-13T18:32:46.758Z,9.35
2022-11-13T18:38:08.229Z,9.73
2022-11-13T18:43:28.663Z,10.98
2022-11-13T18:48:49.693Z,10.40
2022-11-13T18:54:11.964Z,11.85
2022-11-13T18:59:33.101Z,10.15
2022-11-13T19:04:53.465Z,9.95
2022-11-13T19:10:16.049Z,9.93
2022-11-13T19:15:37.915Z,10.20
2022-11-13T19:20:58.778Z,9.73
2022-11-13T19:26:19.343Z,9.43
2022-11-13T19:31:39.952Z,9.23
2022-11-13T19:37:00.429Z,8.18
2022-11-13T19:42:21.569Z,9.60
2022-11-13T19:47:41.917Z,9.10
2022-11-13T19:53:02.178Z,9.90
2022-11-13T19:58:22.414Z,9.07
2022-11-13T20:03:43.305Z,8.07
2022-11-13T20:09:04.352Z,11.77
2022-11-13T20:14:24.454Z,9.95
2022-11-13T20:19:44.742Z,9.68
2022-11-13T20:25:05.293Z,10.80
2022-11-13T20:30:25.548Z,10.50
2022-11-13T20:35:55.227Z,10.35
2022-11-13T20:41:15.691Z,9.55
2022-11-13T20:46:36.095Z,9.40
2022-11-13T20:51:57.411Z,9.68
2022-11-13T20:57:21.185Z,12.75
2022-11-13T21:02:42.111Z,9.60
2022-11-13T21:08:02.523Z,10.65
2022-11-13T21:13:22.765Z,10.40
2022-11-13T21:18:42.895Z,11.32
2022-11-13T21:24:03.482Z,10.50
2022-11-13T21:29:23.865Z,10.88
2022-11-13T21:34:46.390Z,11.13
2022-11-13T21:40:07.802Z,10.63
2022-11-13T21:45:28.028Z,10.35
2022-11-13T21:50:48.358Z,11.52
2022-11-13T21:56:14.257Z,10.70
2022-11-13T22:01:38.631Z,11.73
2022-11-13T22:06:59.108Z,10.52
2022-11-13T22:12:19.815Z,11.82
2022-11-13T22:17:41.216Z,10.88
2022-11-13T22:23:05.390Z,9.77
2022-11-13T22:28:25.449Z,11.88
2022-11-13T22:33:48.954Z,10.85
2022-11-13T22:39:11.786Z,11.95
2022-11-13T22:44:54.392Z,11.18
2022-11-13T22:50:12.599Z,11.38
2022-11-13T22:55:33.007Z,12.15
2022-11-13T23:00:53.328Z,12.55
2022-11-13T23:06:17.840Z,11.02
2022-11-13T23:11:40.300Z,9.07
2022-11-13T23:17:00.709Z,9.43
2022-11-13T23:22:21.393Z,12.27
2022-11-13T23:27:41.627Z,13.63
2022-11-13T23:33:02.045Z,13.80
2022-11-13T23:38:22.606Z,14.27
2022-11-13T23:49:23.165Z,18.10
2022-11-13T23:54:44.045Z,17.52
